< < Back
Terminal Aerodrome Forecast


Current Version              Previous Versions:   1  2  3  4  5  6  7  8  9  

Terminal Aerodrome Forecast

227
FTUS42 KCAE 291140
TAFAGS
TAF
KAGS 291140Z 2912/3012 VRB03KT P6SM FEW070 BKN150
     FM291600 08006KT P6SM SCT040
     FM291900 08006KT P6SM VCSH BKN050 BKN150
     FM300200 VRB03KT P6SM SCT050 BKN150=



Latest METAR

604
SAUS70 KWBC 291600 RRB
MTRAGS
METAR KAGS 291553Z 11005KT 10SM CLR 32/22 A2999 RMK AO2 SLP152
T03220222


USA.gov is the U.S. government's official web portal to all federal, state and local government web resources and services.